createdAt,value
2023-04-22T00:04:22.312Z,8.43
2023-04-22T00:09:26.432Z,11.47
2023-04-22T00:14:29.693Z,8.17
2023-04-22T00:19:34.438Z,7.67
2023-04-22T00:24:37.685Z,10.83
2023-04-22T00:29:41.319Z,7.33
2023-04-22T00:34:44.795Z,7.40
2023-04-22T00:39:48.520Z,9.93
2023-04-22T00:44:52.409Z,11.67
2023-04-22T00:49:55.690Z,10.07
2023-04-22T00:54:58.985Z,9.70
2023-04-22T01:00:02.855Z,16.97
2023-04-22T01:05:09.930Z,15.30
2023-04-22T01:10:13.354Z,18.43
2023-04-22T01:15:16.700Z,14.57
2023-04-22T01:20:19.878Z,12.07
2023-04-22T01:25:23.156Z,11.43
2023-04-22T01:30:26.517Z,10.70
2023-04-22T01:35:30.956Z,9.07
2023-04-22T01:40:34.706Z,9.43
2023-04-22T01:45:38.169Z,9.17
2023-04-22T01:50:41.507Z,9.93
2023-04-22T01:55:45.262Z,9.50
2023-04-22T02:00:48.705Z,15.87
2023-04-22T02:05:52.011Z,13.17
2023-04-22T02:10:55.340Z,10.50
2023-04-22T02:15:58.488Z,12.37
2023-04-22T02:21:01.782Z,11.60
2023-04-22T02:26:05.674Z,14.37
2023-04-22T02:31:08.951Z,14.23
2023-04-22T02:36:12.703Z,9.43
2023-04-22T02:41:16.011Z,10.87
2023-04-22T02:46:19.406Z,12.10
2023-04-22T02:51:23.931Z,13.87
2023-04-22T02:56:27.778Z,11.30
2023-04-22T03:01:31.465Z,14.73
2023-04-22T03:06:34.915Z,14.67
2023-04-22T03:11:38.150Z,15.53
2023-04-22T03:16:41.851Z,15.77
2023-04-22T03:21:45.301Z,14.17
2023-04-22T03:26:48.623Z,11.40
2023-04-22T03:31:51.951Z,14.60
2023-04-22T03:36:55.169Z,15.63
2023-04-22T03:41:58.311Z,13.30
2023-04-22T03:47:01.597Z,22.30
2023-04-22T03:52:05.440Z,17.43
2023-04-22T03:57:08.714Z,15.67
2023-04-22T04:02:12.337Z,11.17
2023-04-22T04:07:15.829Z,11.30
2023-04-22T04:12:19.190Z,13.80
2023-04-22T04:17:26.163Z,11.67
2023-04-22T04:22:29.627Z,12.97
2023-04-22T04:27:33.260Z,11.87
2023-04-22T04:32:37.195Z,11.20
2023-04-22T04:37:43.280Z,15.97
2023-04-22T04:42:46.474Z,11.90
2023-04-22T04:47:53.327Z,14.57
2023-04-22T04:52:56.490Z,15.67
2023-04-22T04:57:59.779Z,16.47
2023-04-22T05:03:03.256Z,13.40
2023-04-22T05:08:06.590Z,15.40
2023-04-22T05:13:09.827Z,13.83
2023-04-22T05:18:13.177Z,14.57
2023-04-22T05:23:16.777Z,16.73
2023-04-22T05:28:20.001Z,13.20
2023-04-22T05:33:23.167Z,16.07
2023-04-22T05:38:26.779Z,14.77
2023-04-22T05:43:29.981Z,14.50
2023-04-22T05:48:33.249Z,15.73
2023-04-22T05:53:36.464Z,13.10
2023-04-22T05:58:39.792Z,15.03
2023-04-22T06:03:43.339Z,12.03
2023-04-22T06:08:46.662Z,13.73
2023-04-22T06:13:49.904Z,16.10
2023-04-22T06:18:53.533Z,13.93
2023-04-22T06:23:56.810Z,15.67
2023-04-22T06:29:05.660Z,14.00
2023-04-22T06:34:08.914Z,15.33
2023-04-22T06:39:12.151Z,16.73
2023-04-22T06:44:15.679Z,16.03
2023-04-22T06:49:18.884Z,18.37
2023-04-22T06:54:22.036Z,10.60
2023-04-22T06:59:25.252Z,14.27
2023-04-22T07:04:29.789Z,13.37
2023-04-22T07:09:33.018Z,14.70
2023-04-22T07:14:36.320Z,10.20
2023-04-22T07:19:40.098Z,13.40
2023-04-22T07:24:43.643Z,11.07
2023-04-22T07:29:46.917Z,10.80
2023-04-22T07:34:50.279Z,15.13
2023-04-22T07:39:53.657Z,11.57
2023-04-22T07:44:56.848Z,11.00
2023-04-22T07:50:00.242Z,10.67
2023-04-22T07:55:03.705Z,11.57
2023-04-22T08:00:08.350Z,13.90
2023-04-22T08:05:11.994Z,11.80
2023-04-22T08:10:15.235Z,13.37
2023-04-22T08:15:18.654Z,10.40
2023-04-22T08:20:22.027Z,10.00
2023-04-22T08:25:25.335Z,10.27
2023-04-22T08:30:28.647Z,10.43
2023-04-22T08:35:32.455Z,10.33
2023-04-22T08:40:36.718Z,9.13
2023-04-22T08:45:41.122Z,15.20
2023-04-22T08:50:44.927Z,9.53
2023-04-22T08:55:50.915Z,14.10
2023-04-22T09:00:55.194Z,7.47
2023-04-22T09:05:59.845Z,5.40
2023-04-22T09:11:04.542Z,11.47
2023-04-22T09:16:11.054Z,7.93
2023-04-22T09:21:14.713Z,5.75
2023-04-22T09:26:23.923Z,4.75
2023-04-22T09:31:28.781Z,10.02
2023-04-22T09:36:41.223Z,7.78
2023-04-22T09:41:44.692Z,6.38
2023-04-22T09:46:51.719Z,5.43
2023-04-22T09:51:58.651Z,5.20
2023-04-22T09:57:02.986Z,54.95
2023-04-22T10:02:07.573Z,6.28
2023-04-22T10:07:11.115Z,5.93
2023-04-22T10:12:16.557Z,14.75
2023-04-22T10:17:22.323Z,4.35
2023-04-22T10:22:26.319Z,5.55
2023-04-22T10:27:29.823Z,8.38
2023-04-22T10:32:33.645Z,5.68
2023-04-22T10:37:37.540Z,3.05
2023-04-22T10:42:41.910Z,3.60
2023-04-22T10:47:45.854Z,13.13
2023-04-22T10:52:56.773Z,8.18
2023-04-22T10:58:00.301Z,4.78
2023-04-22T11:03:12.662Z,3.35
2023-04-22T11:08:21.106Z,5.47
2023-04-22T11:13:27.405Z,5.05
2023-04-22T11:18:33.064Z,6.32
2023-04-22T11:23:37.409Z,4.20
2023-04-22T11:28:47.124Z,5.45
2023-04-22T11:33:50.976Z,3.65
2023-04-22T11:38:58.083Z,3.60
2023-04-22T11:44:02.078Z,3.08
2023-04-22T11:49:17.842Z,4.93
2023-04-22T11:54:31.948Z,6.40
2023-04-22T11:59:35.878Z,4.28
2023-04-22T12:04:43.962Z,5.78
2023-04-22T12:09:47.216Z,4.53
2023-04-22T12:14:50.430Z,4.57
2023-04-22T12:19:57.515Z,4.88
2023-04-22T12:25:02.161Z,7.40
2023-04-22T12:30:06.587Z,5.47
2023-04-22T12:35:09.975Z,3.50
2023-04-22T12:40:13.715Z,5.72
2023-04-22T12:45:21.952Z,5.70
2023-04-22T12:50:28.198Z,7.68
2023-04-22T12:55:31.425Z,4.63
2023-04-22T13:00:35.003Z,4.88
2023-04-22T13:05:41.103Z,10.15
2023-04-22T13:10:46.994Z,6.90
2023-04-22T13:15:54.319Z,6.40
2023-04-22T13:21:01.175Z,4.38
2023-04-22T13:26:05.537Z,8.63
2023-04-22T13:31:11.693Z,6.50
2023-04-22T13:36:14.972Z,5.43
2023-04-22T13:41:22.374Z,6.38
2023-04-22T13:46:25.880Z,6.40
2023-04-22T13:51:29.793Z,3.78
2023-04-22T13:56:33.478Z,4.57
2023-04-22T14:01:38.322Z,8.20
2023-04-22T14:06:42.101Z,4.22
2023-04-22T14:11:45.463Z,12.82
2023-04-22T14:16:49.718Z,6.22
2023-04-22T14:21:53.420Z,4.32
2023-04-22T14:27:01.953Z,4.38
2023-04-22T14:32:05.294Z,6.05
2023-04-22T14:37:08.755Z,9.65
2023-04-22T14:42:12.494Z,5.35
2023-04-22T14:47:16.005Z,7.63
2023-04-22T14:52:19.724Z,6.38
2023-04-22T14:57:23.130Z,10.98
2023-04-22T15:02:26.508Z,7.07
2023-04-22T15:07:30.470Z,6.63
2023-04-22T15:12:33.731Z,5.00
2023-04-22T15:17:37.110Z,7.30
2023-04-22T15:22:43.879Z,5.78
2023-04-22T15:27:47.926Z,6.22
2023-04-22T15:32:51.215Z,8.40
2023-04-22T15:37:54.700Z,8.15
2023-04-22T15:42:58.030Z,7.72
2023-04-22T15:48:01.589Z,8.30
2023-04-22T15:53:05.217Z,6.85
2023-04-22T15:58:08.372Z,6.13
2023-04-22T16:03:11.998Z,5.57
2023-04-22T16:08:15.492Z,8.82
2023-04-22T16:13:19.530Z,11.68
2023-04-22T16:18:22.835Z,7.80
2023-04-22T16:23:26.431Z,10.27
2023-04-22T16:28:29.776Z,12.00
2023-04-22T16:33:34.347Z,11.55
2023-04-22T16:38:37.623Z,7.10
2023-04-22T16:43:41.426Z,10.40
2023-04-22T16:48:45.357Z,10.38
2023-04-22T16:53:48.588Z,9.32
2023-04-22T16:58:52.156Z,10.75
2023-04-22T17:03:56.033Z,9.48
2023-04-22T17:09:01.504Z,9.18
2023-04-22T17:14:05.393Z,9.90
2023-04-22T17:19:08.687Z,9.35
2023-04-22T17:24:14.206Z,10.27
2023-04-22T17:29:22.038Z,13.52
2023-04-22T17:34:25.794Z,13.85
2023-04-22T17:39:29.096Z,13.38
2023-04-22T17:44:32.625Z,12.85
2023-04-22T17:49:36.055Z,20.00
2023-04-22T17:54:39.305Z,24.63
2023-04-22T17:59:43.314Z,24.60
2023-04-22T18:04:47.473Z,24.13
2023-04-22T18:09:51.752Z,24.02
2023-04-22T18:14:56.792Z,19.48
2023-04-22T18:20:13.814Z,16.42
2023-04-22T18:25:21.014Z,29.20
2023-04-22T18:30:25.589Z,51.95
2023-04-22T18:35:29.053Z,24.50
2023-04-22T18:40:32.812Z,20.40
2023-04-22T18:45:37.180Z,22.97
2023-04-22T18:50:41.544Z,40.77
2023-04-22T18:55:45.256Z,39.27
2023-04-22T19:00:51.896Z,22.43
2023-04-22T19:05:55.516Z,24.27
2023-04-22T19:10:59.320Z,27.53
2023-04-22T19:16:03.868Z,27.93
2023-04-22T19:21:08.320Z,24.60
2023-04-22T19:26:14.643Z,26.30
2023-04-22T19:31:19.238Z,60.00
2023-04-22T19:36:23.025Z,46.73
2023-04-22T19:41:27.844Z,36.17
2023-04-22T19:46:32.141Z,37.10
2023-04-22T19:51:36.332Z,31.80
2023-04-22T19:56:42.132Z,35.50
2023-04-22T20:01:47.004Z,42.00
2023-04-22T20:06:54.241Z,29.53
2023-04-22T20:12:00.060Z,29.13
2023-04-22T20:17:04.889Z,34.30
2023-04-22T20:22:11.561Z,27.73
2023-04-22T20:27:17.613Z,32.47
2023-04-22T20:32:21.553Z,30.90
2023-04-22T20:37:26.580Z,29.03
2023-04-22T20:42:30.936Z,31.00
2023-04-22T20:47:36.037Z,33.73
2023-04-22T20:52:41.014Z,37.97
2023-04-22T20:57:44.260Z,38.30
2023-04-22T21:02:48.099Z,45.60
2023-04-22T21:07:53.416Z,47.27
2023-04-22T21:12:58.154Z,43.83
2023-04-22T21:18:03.694Z,41.87
2023-04-22T21:23:08.261Z,45.87
2023-04-22T21:28:11.956Z,48.40
2023-04-22T21:33:15.824Z,36.33
2023-04-22T21:38:20.161Z,41.87
2023-04-22T21:43:23.807Z,41.67
2023-04-22T21:48:27.080Z,34.57
2023-04-22T21:53:30.341Z,28.97
2023-04-22T21:58:33.898Z,39.33
2023-04-22T22:03:37.379Z,45.93
2023-04-22T22:08:41.662Z,39.03
2023-04-22T22:13:48.819Z,40.30
2023-04-22T22:18:52.172Z,39.37
2023-04-22T22:23:55.472Z,37.40
2023-04-22T22:28:58.617Z,46.63
2023-04-22T22:34:01.712Z,58.30
2023-04-22T22:39:05.934Z,55.07
2023-04-22T22:44:09.564Z,49.60
2023-04-22T22:49:13.583Z,40.50
2023-04-22T22:54:17.499Z,39.93
2023-04-22T22:59:20.826Z,38.87
2023-04-22T23:04:24.652Z,39.13
2023-04-22T23:09:28.196Z,49.17
2023-04-22T23:14:33.262Z,51.57
2023-04-22T23:19:36.644Z,53.33
2023-04-22T23:24:40.726Z,49.37
2023-04-22T23:29:44.735Z,45.87
2023-04-22T23:34:50.287Z,44.57
2023-04-22T23:39:53.420Z,45.93
2023-04-22T23:44:57.053Z,44.60
2023-04-22T23:50:00.346Z,41.13
2023-04-22T23:55:05.383Z,39.53
